sensor_id;sensor_type;location;lat;lon;timestamp;temperature;humidity
39875;DHT22;25547;52.530;13.194;2023-04-03T05:30:04;1.20;99.90
39875;DHT22;25547;52.530;13.194;2023-04-03T05:32:32;1.10;99.90
39875;DHT22;25547;52.530;13.194;2023-04-03T05:34:59;1.20;99.90
39875;DHT22;25547;52.530;13.194;2023-04-03T05:37:27;1.20;99.90
39875;DHT22;25547;52.530;13.194;2023-04-03T05:39:52;1.20;99.90
39875;DHT22;25547;52.530;13.194;2023-04-03T05:42:18;1.20;99.90
39875;DHT22;25547;52.530;13.194;2023-04-03T05:44:44;1.30;99.90
39875;DHT22;25547;52.530;13.194;2023-04-03T05:47:12;1.30;99.90
39875;DHT22;25547;52.530;13.194;2023-04-03T05:49:37;1.40;99.90
39875;DHT22;25547;52.530;13.194;2023-04-03T05:52:10;1.40;99.90
39875;DHT22;25547;52.530;13.194;2023-04-03T05:54:42;1.50;99.90
39875;DHT22;25547;52.530;13.194;2023-04-03T05:57:10;1.60;99.90
39875;DHT22;25547;52.530;13.194;2023-04-03T05:59:37;1.70;99.90
39875;DHT22;25547;52.530;13.194;2023-04-03T06:02:02;1.90;99.90
39875;DHT22;25547;52.530;13.194;2023-04-03T06:04:28;1.90;99.90
39875;DHT22;25547;52.530;13.194;2023-04-03T06:06:57;2.00;99.90
39875;DHT22;25547;52.530;13.194;2023-04-03T06:09:26;2.00;99.90
39875;DHT22;25547;52.530;13.194;2023-04-03T06:11:54;2.20;99.90
39875;DHT22;25547;52.530;13.194;2023-04-03T06:14:24;2.30;99.90
39875;DHT22;25547;52.530;13.194;2023-04-03T06:16:51;2.30;99.90
39875;DHT22;25547;52.530;13.194;2023-04-03T06:19:19;2.50;99.90
39875;DHT22;25547;52.530;13.194;2023-04-03T06:21:45;2.60;99.90
39875;DHT22;25547;52.530;13.194;2023-04-03T06:24:14;2.70;99.90
39875;DHT22;25547;52.530;13.194;2023-04-03T06:26:43;2.70;99.90
39875;DHT22;25547;52.530;13.194;2023-04-03T06:29:09;2.70;99.90
39875;DHT22;25547;52.530;13.194;2023-04-03T06:31:34;2.60;99.90
39875;DHT22;25547;52.530;13.194;2023-04-03T06:34:02;2.80;99.90
39875;DHT22;25547;52.530;13.194;2023-04-03T06:36:30;2.90;99.90
39875;DHT22;25547;52.530;13.194;2023-04-03T06:39:00;2.90;99.90
39875;DHT22;25547;52.530;13.194;2023-04-03T06:41:27;2.90;99.90
39875;DHT22;25547;52.530;13.194;2023-04-03T06:43:55;2.90;99.90
39875;DHT22;25547;52.530;13.194;2023-04-03T06:46:25;2.90;99.90
39875;DHT22;25547;52.530;13.194;2023-04-03T06:48:51;2.90;99.90
39875;DHT22;25547;52.530;13.194;2023-04-03T06:51:24;3.00;99.90
39875;DHT22;25547;52.530;13.194;2023-04-03T06:53:55;3.10;99.70
39875;DHT22;25547;52.530;13.194;2023-04-03T06:56:21;3.20;99.40
39875;DHT22;25547;52.530;13.194;2023-04-03T06:58:47;3.40;98.60
39875;DHT22;25547;52.530;13.194;2023-04-03T07:01:17;3.30;97.50
39875;DHT22;25547;52.530;13.194;2023-04-03T07:03:44;3.40;97.40
39875;DHT22;25547;52.530;13.194;2023-04-03T07:06:12;3.50;96.60
39875;DHT22;25547;52.530;13.194;2023-04-03T07:08:38;3.40;95.70
39875;DHT22;25547;52.530;13.194;2023-04-03T07:11:05;3.40;95.80
39875;DHT22;25547;52.530;13.194;2023-04-03T07:13:31;3.50;95.40
39875;DHT22;25547;52.530;13.194;2023-04-03T07:15:59;3.50;94.90
39875;DHT22;25547;52.530;13.194;2023-04-03T07:18:27;3.40;94.80
39875;DHT22;25547;52.530;13.194;2023-04-03T07:20:53;3.60;95.10
39875;DHT22;25547;52.530;13.194;2023-04-03T07:23:23;4.20;94.30
39875;DHT22;25547;52.530;13.194;2023-04-03T07:25:54;4.80;93.60
39875;DHT22;25547;52.530;13.194;2023-04-03T07:28:20;5.20;92.00
39875;DHT22;25547;52.530;13.194;2023-04-03T07:30:51;5.20;90.70
39875;DHT22;25547;52.530;13.194;2023-04-03T07:33:20;5.40;90.00
39875;DHT22;25547;52.530;13.194;2023-04-03T07:35:46;5.30;88.70
39875;DHT22;25547;52.530;13.194;2023-04-03T07:38:15;5.70;88.80
39875;DHT22;25547;52.530;13.194;2023-04-03T07:40:46;5.70;84.80
39875;DHT22;25547;52.530;13.194;2023-04-03T07:43:15;5.40;83.80
39875;DHT22;25547;52.530;13.194;2023-04-03T07:45:41;5.30;84.90
39875;DHT22;25547;52.530;13.194;2023-04-03T07:48:12;5.20;85.60
39875;DHT22;25547;52.530;13.194;2023-04-03T07:50:40;5.00;84.90
39875;DHT22;25547;52.530;13.194;2023-04-03T07:53:08;6.10;81.80
39875;DHT22;25547;52.530;13.194;2023-04-03T07:55:34;5.60;80.00
39875;DHT22;25547;52.530;13.194;2023-04-03T07:58:00;5.10;81.30
39875;DHT22;25547;52.530;13.194;2023-04-03T08:00:27;4.70;82.80
39875;DHT22;25547;52.530;13.194;2023-04-03T08:02:53;4.50;83.70
39875;DHT22;25547;52.530;13.194;2023-04-03T08:05:20;4.80;83.90
39875;DHT22;25547;52.530;13.194;2023-04-03T08:07:48;4.90;82.50
39875;DHT22;25547;52.530;13.194;2023-04-03T08:10:19;4.90;82.80
39875;DHT22;25547;52.530;13.194;2023-04-03T08:12:48;4.90;83.00
39875;DHT22;25547;52.530;13.194;2023-04-03T08:15:14;4.80;82.50
39875;DHT22;25547;52.530;13.194;2023-04-03T08:17:40;4.50;82.60
39875;DHT22;25547;52.530;13.194;2023-04-03T08:20:10;4.70;83.20
39875;DHT22;25547;52.530;13.194;2023-04-03T08:22:37;5.10;81.80
39875;DHT22;25547;52.530;13.194;2023-04-03T08:25:03;5.00;82.90
39875;DHT22;25547;52.530;13.194;2023-04-03T08:27:29;5.10;81.80
39875;DHT22;25547;52.530;13.194;2023-04-03T08:29:56;4.70;82.00
39875;DHT22;25547;52.530;13.194;2023-04-03T08:32:22;4.60;82.90
39875;DHT22;25547;52.530;13.194;2023-04-03T08:34:48;4.60;83.30
39875;DHT22;25547;52.530;13.194;2023-04-03T08:37:14;4.70;82.80
39875;DHT22;25547;52.530;13.194;2023-04-03T08:39:42;4.80;82.40
39875;DHT22;25547;52.530;13.194;2023-04-03T08:45:02;5.00;81.60
39875;DHT22;25547;52.530;13.194;2023-04-03T08:47:43;5.00;81.60
39875;DHT22;25547;52.530;13.194;2023-04-03T08:50:23;5.00;80.80
39875;DHT22;25547;52.530;13.194;2023-04-03T08:52:53;5.10;80.90
39875;DHT22;25547;52.530;13.194;2023-04-03T08:55:24;5.20;80.90
39875;DHT22;25547;52.530;13.194;2023-04-03T08:58:00;5.30;80.50
39875;DHT22;25547;52.530;13.194;2023-04-03T09:00:34;5.10;80.70
39875;DHT22;25547;52.530;13.194;2023-04-03T09:03:03;4.90;80.90
39875;DHT22;25547;52.530;13.194;2023-04-03T09:08:32;5.00;80.50
39875;DHT22;25547;52.530;13.194;2023-04-03T09:19:56;5.50;75.20
39875;DHT22;25547;52.530;13.194;2023-04-03T09:22:26;5.80;75.50
39875;DHT22;25547;52.530;13.194;2023-04-03T09:27:26;5.70;73.30
39875;DHT22;25547;52.530;13.194;2023-04-03T09:29:55;5.80;74.50
39875;DHT22;25547;52.530;13.194;2023-04-03T09:35:00;5.80;74.40
39875;DHT22;25547;52.530;13.194;2023-04-03T09:37:45;6.00;74.00
39875;DHT22;25547;52.530;13.194;2023-04-03T09:40:39;6.20;73.60
39875;DHT22;25547;52.530;13.194;2023-04-03T09:45:47;6.10;73.90
39875;DHT22;25547;52.530;13.194;2023-04-03T09:50:59;6.30;70.40
39875;DHT22;25547;52.530;13.194;2023-04-03T09:53:41;6.40;70.30
39875;DHT22;25547;52.530;13.194;2023-04-03T09:59:06;6.40;69.20
39875;DHT22;25547;52.530;13.194;2023-04-03T10:04:17;6.40;71.30
39875;DHT22;25547;52.530;13.194;2023-04-03T10:06:45;6.10;69.80
39875;DHT22;25547;52.530;13.194;2023-04-03T10:09:28;6.40;70.20
39875;DHT22;25547;52.530;13.194;2023-04-03T10:12:08;6.50;70.30
39875;DHT22;25547;52.530;13.194;2023-04-03T10:14:39;6.50;66.90
39875;DHT22;25547;52.530;13.194;2023-04-03T10:23:14;6.60;66.10
39875;DHT22;25547;52.530;13.194;2023-04-03T10:25:56;6.70;66.20
39875;DHT22;25547;52.530;13.194;2023-04-03T10:34:06;6.50;66.40
39875;DHT22;25547;52.530;13.194;2023-04-03T10:45:15;6.90;66.50
39875;DHT22;25547;52.530;13.194;2023-04-03T10:59:41;6.60;67.40
39875;DHT22;25547;52.530;13.194;2023-04-03T11:01:56;6.80;67.40
39875;DHT22;25547;52.530;13.194;2023-04-03T11:04:28;6.80;66.70
39875;DHT22;25547;52.530;13.194;2023-04-03T11:07:03;6.60;67.00
39875;DHT22;25547;52.530;13.194;2023-04-03T11:09:41;6.60;67.40
39875;DHT22;25547;52.530;13.194;2023-04-03T11:12:18;6.70;65.90
39875;DHT22;25547;52.530;13.194;2023-04-03T11:14:47;6.90;67.30
39875;DHT22;25547;52.530;13.194;2023-04-03T11:22:33;6.80;65.60
39875;DHT22;25547;52.530;13.194;2023-04-03T11:25:18;6.70;64.80
39875;DHT22;25547;52.530;13.194;2023-04-03T11:36:18;6.90;66.00
39875;DHT22;25547;52.530;13.194;2023-04-03T11:38:46;7.00;65.70
39875;DHT22;25547;52.530;13.194;2023-04-03T11:41:13;7.00;66.50
39875;DHT22;25547;52.530;13.194;2023-04-03T11:47:06;6.80;65.50
39875;DHT22;25547;52.530;13.194;2023-04-03T11:50:01;6.70;66.10
39875;DHT22;25547;52.530;13.194;2023-04-03T12:24:35;6.90;66.90
39875;DHT22;25547;52.530;13.194;2023-04-03T12:27:29;6.80;66.80
39875;DHT22;25547;52.530;13.194;2023-04-03T12:42:03;6.60;69.20
39875;DHT22;25547;52.530;13.194;2023-04-03T12:47:36;6.60;68.30
39875;DHT22;25547;52.530;13.194;2023-04-03T12:50:50;6.40;69.10
39875;DHT22;25547;52.530;13.194;2023-04-03T12:55:40;6.40;69.90
39875;DHT22;25547;52.530;13.194;2023-04-03T12:58:21;6.60;69.80
39875;DHT22;25547;52.530;13.194;2023-04-03T13:00:58;6.50;68.90
39875;DHT22;25547;52.530;13.194;2023-04-03T13:03:25;6.50;69.10
39875;DHT22;25547;52.530;13.194;2023-04-03T13:05:59;6.50;69.10
39875;DHT22;25547;52.530;13.194;2023-04-03T13:08:24;6.60;68.70
39875;DHT22;25547;52.530;13.194;2023-04-03T13:11:11;6.50;67.70
39875;DHT22;25547;52.530;13.194;2023-04-03T13:13:37;6.50;69.20
39875;DHT22;25547;52.530;13.194;2023-04-03T13:16:10;6.60;71.00
39875;DHT22;25547;52.530;13.194;2023-04-03T13:18:38;6.70;70.00
39875;DHT22;25547;52.530;13.194;2023-04-03T13:21:07;6.70;68.50
39875;DHT22;25547;52.530;13.194;2023-04-03T13:23:36;6.60;68.40
39875;DHT22;25547;52.530;13.194;2023-04-03T13:26:07;6.40;68.60
39875;DHT22;25547;52.530;13.194;2023-04-03T13:28:34;6.40;68.30
39875;DHT22;25547;52.530;13.194;2023-04-03T13:31:16;6.40;68.50
39875;DHT22;25547;52.530;13.194;2023-04-03T13:33:53;6.40;68.40
39875;DHT22;25547;52.530;13.194;2023-04-03T13:41:45;6.70;68.60
39875;DHT22;25547;52.530;13.194;2023-04-03T13:46:50;6.70;69.00
39875;DHT22;25547;52.530;13.194;2023-04-03T13:51:54;6.50;68.60
39875;DHT22;25547;52.530;13.194;2023-04-03T13:54:37;6.40;70.30
39875;DHT22;25547;52.530;13.194;2023-04-03T13:57:14;6.50;69.80
39875;DHT22;25547;52.530;13.194;2023-04-03T13:59:43;6.40;70.00
39875;DHT22;25547;52.530;13.194;2023-04-03T14:02:14;6.20;70.30
39875;DHT22;25547;52.530;13.194;2023-04-03T14:07:08;6.20;71.70
39875;DHT22;25547;52.530;13.194;2023-04-03T14:09:37;6.20;72.10
39875;DHT22;25547;52.530;13.194;2023-04-03T14:12:06;6.20;72.00
39875;DHT22;25547;52.530;13.194;2023-04-03T14:14:36;6.20;72.40
39875;DHT22;25547;52.530;13.194;2023-04-03T14:17:13;6.20;71.90
39875;DHT22;25547;52.530;13.194;2023-04-03T14:19:40;6.00;71.90
39875;DHT22;25547;52.530;13.194;2023-04-03T14:22:19;6.10;72.00
39875;DHT22;25547;52.530;13.194;2023-04-03T14:24:45;6.20;72.50
39875;DHT22;25547;52.530;13.194;2023-04-03T14:27:35;6.20;72.10
39875;DHT22;25547;52.530;13.194;2023-04-03T14:30:04;6.20;72.20
39875;DHT22;25547;52.530;13.194;2023-04-03T14:32:30;6.20;72.40
39875;DHT22;25547;52.530;13.194;2023-04-03T14:34:56;6.10;72.00
39875;DHT22;25547;52.530;13.194;2023-04-03T14:37:26;6.10;72.30
39875;DHT22;25547;52.530;13.194;2023-04-03T14:39:54;6.20;72.10
39875;DHT22;25547;52.530;13.194;2023-04-03T14:42:23;6.20;72.90
39875;DHT22;25547;52.530;13.194;2023-04-03T14:44:49;5.90;73.00
39875;DHT22;25547;52.530;13.194;2023-04-03T14:47:26;5.90;73.40
39875;DHT22;25547;52.530;13.194;2023-04-03T14:49:55;5.90;74.50
39875;DHT22;25547;52.530;13.194;2023-04-03T14:52:30;6.00;72.70
39875;DHT22;25547;52.530;13.194;2023-04-03T14:54:56;6.10;71.70
39875;DHT22;25547;52.530;13.194;2023-04-03T14:57:24;6.20;72.30
39875;DHT22;25547;52.530;13.194;2023-04-03T14:59:54;6.40;72.90
39875;DHT22;25547;52.530;13.194;2023-04-03T15:02:27;6.50;73.00
39875;DHT22;25547;52.530;13.194;2023-04-03T15:04:55;6.30;73.20
39875;DHT22;25547;52.530;13.194;2023-04-03T15:07:21;6.10;73.70
39875;DHT22;25547;52.530;13.194;2023-04-03T15:09:48;6.20;73.60
39875;DHT22;25547;52.530;13.194;2023-04-03T15:12:17;6.30;74.90
39875;DHT22;25547;52.530;13.194;2023-04-03T15:14:43;6.40;73.90
39875;DHT22;25547;52.530;13.194;2023-04-03T15:17:16;6.40;72.60
39875;DHT22;25547;52.530;13.194;2023-04-03T15:19:42;6.20;72.80
39875;DHT22;25547;52.530;13.194;2023-04-03T15:22:17;6.10;73.00
39875;DHT22;25547;52.530;13.194;2023-04-03T15:24:43;6.00;72.70
39875;DHT22;25547;52.530;13.194;2023-04-03T15:27:10;5.90;74.10
39875;DHT22;25547;52.530;13.194;2023-04-03T15:29:39;5.90;74.20
39875;DHT22;25547;52.530;13.194;2023-04-03T15:32:07;5.90;74.60
39875;DHT22;25547;52.530;13.194;2023-04-03T15:34:36;5.80;74.80
39875;DHT22;25547;52.530;13.194;2023-04-03T15:37:02;5.80;75.20
39875;DHT22;25547;52.530;13.194;2023-04-03T15:39:27;5.90;75.60
39875;DHT22;25547;52.530;13.194;2023-04-03T15:41:54;5.90;75.50
39875;DHT22;25547;52.530;13.194;2023-04-03T15:44:27;5.90;76.10
39875;DHT22;25547;52.530;13.194;2023-04-03T15:46:53;5.80;76.70
39875;DHT22;25547;52.530;13.194;2023-04-03T15:49:19;5.80;77.10
39875;DHT22;25547;52.530;13.194;2023-04-03T15:51:46;5.80;77.20
39875;DHT22;25547;52.530;13.194;2023-04-03T15:54:12;5.90;77.50
39875;DHT22;25547;52.530;13.194;2023-04-03T15:56:38;5.80;77.80
39875;DHT22;25547;52.530;13.194;2023-04-03T15:59:03;5.70;78.30
39875;DHT22;25547;52.530;13.194;2023-04-03T16:01:29;5.70;79.10
39875;DHT22;25547;52.530;13.194;2023-04-03T16:03:56;5.70;79.40
39875;DHT22;25547;52.530;13.194;2023-04-03T16:06:21;5.60;80.20
39875;DHT22;25547;52.530;13.194;2023-04-03T16:08:49;5.60;80.70
39875;DHT22;25547;52.530;13.194;2023-04-03T16:11:15;5.70;81.10
39875;DHT22;25547;52.530;13.194;2023-04-03T16:13:40;5.70;80.70
39875;DHT22;25547;52.530;13.194;2023-04-03T16:16:06;5.60;81.60
39875;DHT22;25547;52.530;13.194;2023-04-03T16:18:35;5.60;81.50
39875;DHT22;25547;52.530;13.194;2023-04-03T16:21:01;5.60;81.80
39875;DHT22;25547;52.530;13.194;2023-04-03T16:23:29;5.50;82.00
39875;DHT22;25547;52.530;13.194;2023-04-03T16:25:55;5.50;81.10
39875;DHT22;25547;52.530;13.194;2023-04-03T16:28:21;5.30;82.00
39875;DHT22;25547;52.530;13.194;2023-04-03T16:30:49;5.20;81.60
39875;DHT22;25547;52.530;13.194;2023-04-03T16:33:15;5.10;81.50
39875;DHT22;25547;52.530;13.194;2023-04-03T16:35:44;5.10;81.20
39875;DHT22;25547;52.530;13.194;2023-04-03T16:38:09;5.20;81.40
39875;DHT22;25547;52.530;13.194;2023-04-03T16:40:37;5.30;81.50
39875;DHT22;25547;52.530;13.194;2023-04-03T16:43:03;5.30;81.40
39875;DHT22;25547;52.530;13.194;2023-04-03T16:45:31;5.30;81.40
39875;DHT22;25547;52.530;13.194;2023-04-03T16:47:57;5.40;82.20
39875;DHT22;25547;52.530;13.194;2023-04-03T16:50:22;5.40;81.60
39875;DHT22;25547;52.530;13.194;2023-04-03T16:52:48;5.50;81.90
39875;DHT22;25547;52.530;13.194;2023-04-03T16:55:14;5.50;82.20
39875;DHT22;25547;52.530;13.194;2023-04-03T16:57:41;5.50;82.10
39875;DHT22;25547;52.530;13.194;2023-04-03T17:00:07;5.50;82.20
39875;DHT22;25547;52.530;13.194;2023-04-03T17:02:36;5.50;82.30
39875;DHT22;25547;52.530;13.194;2023-04-03T17:05:04;5.40;82.20
39875;DHT22;25547;52.530;13.194;2023-04-03T17:07:30;5.40;83.00
39875;DHT22;25547;52.530;13.194;2023-04-03T17:09:55;5.40;83.90
39875;DHT22;25547;52.530;13.194;2023-04-03T17:12:24;5.30;84.30
39875;DHT22;25547;52.530;13.194;2023-04-03T17:14:50;5.20;83.50
39875;DHT22;25547;52.530;13.194;2023-04-03T17:17:21;5.20;83.40
39875;DHT22;25547;52.530;13.194;2023-04-03T17:19:47;5.20;83.50
39875;DHT22;25547;52.530;13.194;2023-04-03T17:22:13;5.10;84.10
39875;DHT22;25547;52.530;13.194;2023-04-03T17:24:39;5.10;85.00
39875;DHT22;25547;52.530;13.194;2023-04-03T17:27:07;5.10;85.20
39875;DHT22;25547;52.530;13.194;2023-04-03T17:29:33;5.10;85.90
39875;DHT22;25547;52.530;13.194;2023-04-03T17:31:59;5.00;86.40
39875;DHT22;25547;52.530;13.194;2023-04-03T17:34:24;5.10;86.50
39875;DHT22;25547;52.530;13.194;2023-04-03T17:36:50;5.10;86.70
39875;DHT22;25547;52.530;13.194;2023-04-03T17:39:18;5.10;86.10
39875;DHT22;25547;52.530;13.194;2023-04-03T17:41:44;5.10;85.80
39875;DHT22;25547;52.530;13.194;2023-04-03T17:44:14;5.00;86.00
39875;DHT22;25547;52.530;13.194;2023-04-03T17:46:40;5.00;86.10
39875;DHT22;25547;52.530;13.194;2023-04-03T17:49:08;5.00;86.60
39875;DHT22;25547;52.530;13.194;2023-04-03T17:51:40;5.00;87.20
39875;DHT22;25547;52.530;13.194;2023-04-03T17:54:05;5.00;87.20
39875;DHT22;25547;52.530;13.194;2023-04-03T17:56:31;4.90;88.10
39875;DHT22;25547;52.530;13.194;2023-04-03T17:58:57;4.90;88.00
39875;DHT22;25547;52.530;13.194;2023-04-03T18:01:28;4.90;88.50
39875;DHT22;25547;52.530;13.194;2023-04-03T18:03:58;4.90;88.40
39875;DHT22;25547;52.530;13.194;2023-04-03T18:06:27;4.80;88.60
39875;DHT22;25547;52.530;13.194;2023-04-03T18:09:02;4.80;89.30
39875;DHT22;25547;52.530;13.194;2023-04-03T18:11:29;4.90;89.60
39875;DHT22;25547;52.530;13.194;2023-04-03T18:13:59;4.80;89.80
39875;DHT22;25547;52.530;13.194;2023-04-03T18:16:26;4.90;89.50
39875;DHT22;25547;52.530;13.194;2023-04-03T18:18:52;4.90;89.60
39875;DHT22;25547;52.530;13.194;2023-04-03T18:21:20;4.90;89.40
39875;DHT22;25547;52.530;13.194;2023-04-03T18:23:49;4.80;89.20
39875;DHT22;25547;52.530;13.194;2023-04-03T18:26:21;4.80;89.40
39875;DHT22;25547;52.530;13.194;2023-04-03T18:28:52;4.80;90.20
39875;DHT22;25547;52.530;13.194;2023-04-03T18:31:18;4.90;90.10
39875;DHT22;25547;52.530;13.194;2023-04-03T18:33:44;4.80;89.80
39875;DHT22;25547;52.530;13.194;2023-04-03T18:36:10;4.80;90.10
39875;DHT22;25547;52.530;13.194;2023-04-03T18:38:36;4.80;90.20
39875;DHT22;25547;52.530;13.194;2023-04-03T18:41:07;4.60;90.40
39875;DHT22;25547;52.530;13.194;2023-04-03T18:43:33;4.60;90.50
39875;DHT22;25547;52.530;13.194;2023-04-03T18:45:59;4.60;90.60
39875;DHT22;25547;52.530;13.194;2023-04-03T18:48:29;4.60;90.50
39875;DHT22;25547;52.530;13.194;2023-04-03T18:50:57;4.60;90.50
39875;DHT22;25547;52.530;13.194;2023-04-03T18:53:26;4.60;90.60
39875;DHT22;25547;52.530;13.194;2023-04-03T18:55:52;4.60;90.60
39875;DHT22;25547;52.530;13.194;2023-04-03T18:58:20;4.60;90.60
39875;DHT22;25547;52.530;13.194;2023-04-03T19:00:48;4.60;90.70
39875;DHT22;25547;52.530;13.194;2023-04-03T19:03:13;4.60;90.70
39875;DHT22;25547;52.530;13.194;2023-04-03T19:05:39;4.60;90.80
39875;DHT22;25547;52.530;13.194;2023-04-03T19:08:05;4.50;91.00
39875;DHT22;25547;52.530;13.194;2023-04-03T19:10:31;4.40;91.00
39875;DHT22;25547;52.530;13.194;2023-04-03T19:12:56;4.40;91.20
39875;DHT22;25547;52.530;13.194;2023-04-03T19:15:27;4.40;90.90
39875;DHT22;25547;52.530;13.194;2023-04-03T19:17:55;4.40;91.00
39875;DHT22;25547;52.530;13.194;2023-04-03T19:20:21;4.40;91.00
39875;DHT22;25547;52.530;13.194;2023-04-03T19:22:47;4.40;91.20
39875;DHT22;25547;52.530;13.194;2023-04-03T19:25:15;4.40;91.30
39875;DHT22;25547;52.530;13.194;2023-04-03T19:27:41;4.30;91.50
39875;DHT22;25547;52.530;13.194;2023-04-03T19:30:08;4.20;91.60
39875;DHT22;25547;52.530;13.194;2023-04-03T19:32:35;4.20;91.70
39875;DHT22;25547;52.530;13.194;2023-04-03T19:35:03;4.20;92.00
39875;DHT22;25547;52.530;13.194;2023-04-03T19:37:29;4.20;91.70
39875;DHT22;25547;52.530;13.194;2023-04-03T19:39:55;4.10;91.90
39875;DHT22;25547;52.530;13.194;2023-04-03T19:42:21;4.10;92.00
39875;DHT22;25547;52.530;13.194;2023-04-03T19:44:50;4.20;92.10
39875;DHT22;25547;52.530;13.194;2023-04-03T19:47:16;4.20;92.40
39875;DHT22;25547;52.530;13.194;2023-04-03T19:49:44;4.10;92.40
39875;DHT22;25547;52.530;13.194;2023-04-03T19:52:10;4.10;92.60
39875;DHT22;25547;52.530;13.194;2023-04-03T19:54:38;4.10;92.60
39875;DHT22;25547;52.530;13.194;2023-04-03T19:57:06;4.00;92.80
39875;DHT22;25547;52.530;13.194;2023-04-03T19:59:32;4.10;92.90
39875;DHT22;25547;52.530;13.194;2023-04-03T20:01:58;4.10;93.00
39875;DHT22;25547;52.530;13.194;2023-04-03T20:04:24;4.10;93.20
39875;DHT22;25547;52.530;13.194;2023-04-03T20:06:49;4.10;93.30
39875;DHT22;25547;52.530;13.194;2023-04-03T20:09:16;4.10;93.40
39875;DHT22;25547;52.530;13.194;2023-04-03T20:11:44;4.10;93.50
39875;DHT22;25547;52.530;13.194;2023-04-03T20:14:12;4.10;93.50
39875;DHT22;25547;52.530;13.194;2023-04-03T20:16:40;4.00;93.60
39875;DHT22;25547;52.530;13.194;2023-04-03T20:19:07;4.10;93.60
39875;DHT22;25547;52.530;13.194;2023-04-03T20:21:34;4.10;93.70
39875;DHT22;25547;52.530;13.194;2023-04-03T20:24:01;4.00;93.80
39875;DHT22;25547;52.530;13.194;2023-04-03T20:26:28;4.00;94.00
39875;DHT22;25547;52.530;13.194;2023-04-03T20:28:56;4.00;94.00
39875;DHT22;25547;52.530;13.194;2023-04-03T20:31:23;4.00;94.20
39875;DHT22;25547;52.530;13.194;2023-04-03T20:33:51;3.90;94.40
39875;DHT22;25547;52.530;13.194;2023-04-03T20:36:20;3.90;94.40
39875;DHT22;25547;52.530;13.194;2023-04-03T20:38:48;3.90;94.50
39875;DHT22;25547;52.530;13.194;2023-04-03T20:41:14;3.90;94.50
39875;DHT22;25547;52.530;13.194;2023-04-03T20:43:41;3.80;94.70
39875;DHT22;25547;52.530;13.194;2023-04-03T20:46:08;3.80;94.70
39875;DHT22;25547;52.530;13.194;2023-04-03T20:48:36;3.90;94.80
39875;DHT22;25547;52.530;13.194;2023-04-03T20:51:12;3.70;95.00
39875;DHT22;25547;52.530;13.194;2023-04-03T20:53:39;3.70;95.10
39875;DHT22;25547;52.530;13.194;2023-04-03T20:56:07;3.70;95.10
39875;DHT22;25547;52.530;13.194;2023-04-03T20:58:34;3.60;95.20
39875;DHT22;25547;52.530;13.194;2023-04-03T21:01:11;3.60;95.30
39875;DHT22;25547;52.530;13.194;2023-04-03T21:03:36;3.50;95.40
39875;DHT22;25547;52.530;13.194;2023-04-03T21:21:24;3.30;96.30
39875;DHT22;25547;52.530;13.194;2023-04-03T21:23:53;3.20;96.30
39875;DHT22;25547;52.530;13.194;2023-04-03T21:26:20;3.20;96.40
39875;DHT22;25547;52.530;13.194;2023-04-03T21:28:48;3.20;96.50
39875;DHT22;25547;52.530;13.194;2023-04-03T21:31:16;3.10;96.60
39875;DHT22;25547;52.530;13.194;2023-04-03T21:33:44;3.10;96.70
39875;DHT22;25547;52.530;13.194;2023-04-03T21:36:10;3.10;96.70
39875;DHT22;25547;52.530;13.194;2023-04-03T21:38:36;3.20;96.70
39875;DHT22;25547;52.530;13.194;2023-04-03T21:41:05;3.20;96.80
39875;DHT22;25547;52.530;13.194;2023-04-03T21:43:31;3.20;96.60
39875;DHT22;25547;52.530;13.194;2023-04-03T21:45:58;3.20;96.60
39875;DHT22;25547;52.530;13.194;2023-04-03T21:48:25;3.20;96.70
39875;DHT22;25547;52.530;13.194;2023-04-03T21:51:02;3.20;96.80
39875;DHT22;25547;52.530;13.194;2023-04-03T21:53:30;3.20;96.90
39875;DHT22;25547;52.530;13.194;2023-04-03T21:56:00;3.10;97.00
39875;DHT22;25547;52.530;13.194;2023-04-03T21:58:28;3.10;97.40
39875;DHT22;25547;52.530;13.194;2023-04-03T22:00:57;3.10;97.20
39875;DHT22;25547;52.530;13.194;2023-04-03T22:03:31;3.10;97.20
39875;DHT22;25547;52.530;13.194;2023-04-03T22:06:01;3.00;97.20
39875;DHT22;25547;52.530;13.194;2023-04-03T22:08:28;3.00;97.30
39875;DHT22;25547;52.530;13.194;2023-04-03T22:10:59;2.80;97.60
39875;DHT22;25547;52.530;13.194;2023-04-03T22:13:28;2.80;97.80
39875;DHT22;25547;52.530;13.194;2023-04-03T22:15:59;2.80;97.80
39875;DHT22;25547;52.530;13.194;2023-04-03T22:18:26;2.80;97.90
39875;DHT22;25547;52.530;13.194;2023-04-03T22:20:52;2.80;97.90
39875;DHT22;25547;52.530;13.194;2023-04-03T22:23:29;2.80;98.00
39875;DHT22;25547;52.530;13.194;2023-04-03T22:26:09;2.70;98.20
39875;DHT22;25547;52.530;13.194;2023-04-03T22:28:39;2.70;98.20
39875;DHT22;25547;52.530;13.194;2023-04-03T22:31:06;2.70;98.30
39875;DHT22;25547;52.530;13.194;2023-04-03T22:33:34;2.70;98.30
39875;DHT22;25547;52.530;13.194;2023-04-03T22:36:04;2.70;98.40
39875;DHT22;25547;52.530;13.194;2023-04-03T22:38:33;2.60;98.20
39875;DHT22;25547;52.530;13.194;2023-04-03T22:41:04;2.60;98.30
39875;DHT22;25547;52.530;13.194;2023-04-03T22:43:30;2.60;98.30
39875;DHT22;25547;52.530;13.194;2023-04-03T22:45:58;2.50;98.40
39875;DHT22;25547;52.530;13.194;2023-04-03T22:48:24;2.50;98.70
39875;DHT22;25547;52.530;13.194;2023-04-03T22:50:52;2.40;98.90
39875;DHT22;25547;52.530;13.194;2023-04-03T22:53:18;2.40;98.90
39875;DHT22;25547;52.530;13.194;2023-04-03T22:55:56;2.40;99.00
39875;DHT22;25547;52.530;13.194;2023-04-03T22:58:21;2.40;99.00
39875;DHT22;25547;52.530;13.194;2023-04-03T23:00:54;2.40;99.10
39875;DHT22;25547;52.530;13.194;2023-04-03T23:03:23;2.40;99.00
39875;DHT22;25547;52.530;13.194;2023-04-03T23:05:49;2.40;99.00
39875;DHT22;25547;52.530;13.194;2023-04-03T23:08:16;2.40;99.10
39875;DHT22;25547;52.530;13.194;2023-04-03T23:10:43;2.30;99.00
39875;DHT22;25547;52.530;13.194;2023-04-03T23:13:09;2.30;99.20
39875;DHT22;25547;52.530;13.194;2023-04-03T23:15:37;2.20;99.20
39875;DHT22;25547;52.530;13.194;2023-04-03T23:18:02;2.30;99.50
39875;DHT22;25547;52.530;13.194;2023-04-03T23:20:28;2.20;99.40
39875;DHT22;25547;52.530;13.194;2023-04-03T23:22:54;2.30;99.40
39875;DHT22;25547;52.530;13.194;2023-04-03T23:25:19;2.30;99.60
39875;DHT22;25547;52.530;13.194;2023-04-03T23:27:51;2.20;99.60
39875;DHT22;25547;52.530;13.194;2023-04-03T23:30:17;2.20;99.70
39875;DHT22;25547;52.530;13.194;2023-04-03T23:32:42;2.20;99.70
39875;DHT22;25547;52.530;13.194;2023-04-03T23:35:10;2.20;99.90
39875;DHT22;25547;52.530;13.194;2023-04-03T23:37:36;2.20;99.90
39875;DHT22;25547;52.530;13.194;2023-04-03T23:40:04;2.20;99.80
39875;DHT22;25547;52.530;13.194;2023-04-03T23:42:30;2.20;99.90
39875;DHT22;25547;52.530;13.194;2023-04-03T23:44:58;2.10;99.90
39875;DHT22;25547;52.530;13.194;2023-04-03T23:47:23;2.00;99.90